createdAt,value
2018-06-10T00:00:49.729Z,16.5
2018-06-10T00:02:49.946Z,16.5
2018-06-10T00:04:50.291Z,20.3
2018-06-10T00:06:49.654Z,20.3
2018-06-10T00:08:49.823Z,19.6
2018-06-10T00:10:50.011Z,19.6
2018-06-10T00:12:50.209Z,18.3
2018-06-10T00:14:50.389Z,18.3
2018-06-10T00:16:49.810Z,18.1
2018-06-10T00:18:49.989Z,18.6
2018-06-10T00:20:50.142Z,19.4
2018-06-10T00:22:50.278Z,18.9
2018-06-10T00:24:50.405Z,18.9
2018-06-10T00:26:49.722Z,19.3
2018-06-10T00:28:49.865Z,19.2
2018-06-10T00:30:49.802Z,18.9
2018-06-10T00:32:50.005Z,18.9
2018-06-10T00:34:50.324Z,19.0
2018-06-10T00:36:49.567Z,21.1
2018-06-10T00:38:49.700Z,20.9
2018-06-10T00:40:49.835Z,20.9
2018-06-10T00:42:49.971Z,21.2
2018-06-10T00:44:50.150Z,20.5
2018-06-10T00:46:50.523Z,21.0
2018-06-10T00:48:49.761Z,20.3
2018-06-10T00:50:49.948Z,20.3
2018-06-10T00:52:50.152Z,19.3
2018-06-10T00:54:50.320Z,20.3
2018-06-10T00:56:49.704Z,20.7
2018-06-10T00:58:49.660Z,20.7
2018-06-10T01:00:49.821Z,21.0
2018-06-10T01:02:50.032Z,22.4
2018-06-10T01:04:50.338Z,22.4
2018-06-10T01:06:49.612Z,22.7
2018-06-10T01:08:49.803Z,22.7
2018-06-10T01:10:50.028Z,22.7
2018-06-10T01:12:50.201Z,23.4
2018-06-10T01:14:50.359Z,22.4
2018-06-10T01:16:49.614Z,22.3
2018-06-10T01:18:49.787Z,22.3
2018-06-10T01:20:49.965Z,23.3
2018-06-10T01:22:50.123Z,23.3
2018-06-10T01:24:50.249Z,23.6
2018-06-10T01:26:50.494Z,24.1
2018-06-10T01:28:50.430Z,24.1
2018-06-10T01:30:49.562Z,22.6
2018-06-10T01:32:49.737Z,22.6
2018-06-10T01:34:50.056Z,23.2
2018-06-10T01:36:50.355Z,24.4
2018-06-10T01:38:50.460Z,24.0
2018-06-10T01:40:49.573Z,24.9
2018-06-10T01:42:49.760Z,24.9
2018-06-10T01:44:50.039Z,23.3
2018-06-10T01:46:50.324Z,24.7
2018-06-10T01:48:50.462Z,25.2
2018-06-10T01:50:49.764Z,25.2
2018-06-10T01:52:49.948Z,24.8
2018-06-10T01:54:50.079Z,24.1
2018-06-10T01:56:50.458Z,26.0
2018-06-10T01:58:49.625Z,22.0
2018-06-10T02:00:49.872Z,22.0
2018-06-10T02:02:50.096Z,23.5
2018-06-10T02:04:50.410Z,23.5
2018-06-10T02:06:49.774Z,23.7
2018-06-10T02:08:49.611Z,23.7
2018-06-10T02:10:49.834Z,22.2
2018-06-10T02:12:49.996Z,22.8
2018-06-10T02:14:50.196Z,22.5
2018-06-10T02:16:49.576Z,22.5
2018-06-10T02:18:49.785Z,21.9
2018-06-10T02:20:49.935Z,21.6
2018-06-10T02:22:50.103Z,21.6
2018-06-10T02:24:50.230Z,19.5
2018-06-10T02:26:49.530Z,19.5
2018-06-10T02:28:49.699Z,19.5
2018-06-10T02:30:49.908Z,19.7
2018-06-10T02:32:50.127Z,18.7
2018-06-10T02:34:50.487Z,19.8
2018-06-10T02:36:49.802Z,19.8
2018-06-10T02:38:49.978Z,18.7
2018-06-10T02:40:50.132Z,18.3
2018-06-10T02:42:50.342Z,19.0
2018-06-10T02:44:50.497Z,18.8
2018-06-10T02:46:50.376Z,18.8
2018-06-10T02:48:49.571Z,18.9
2018-06-10T02:50:49.737Z,18.9
2018-06-10T02:52:49.984Z,18.1
2018-06-10T02:54:50.136Z,18.7
2018-06-10T02:56:50.414Z,18.7
2018-06-10T02:58:49.636Z,18.8
2018-06-10T03:00:49.905Z,19.2
2018-06-10T03:02:50.284Z,18.7
2018-06-10T03:04:49.662Z,18.7
2018-06-10T03:06:49.983Z,18.0
2018-06-10T03:08:50.193Z,20.8
2018-06-10T03:10:50.460Z,19.5
2018-06-10T03:12:49.784Z,18.7
2018-06-10T03:14:49.982Z,19.0
2018-06-10T03:16:50.222Z,19.0
2018-06-10T03:18:50.413Z,18.7
2018-06-10T03:20:49.576Z,18.9
2018-06-10T03:22:49.787Z,19.7
2018-06-10T03:24:49.947Z,19.7
2018-06-10T03:26:50.313Z,19.0
2018-06-10T03:28:50.482Z,19.4
2018-06-10T03:30:49.622Z,19.6
2018-06-10T03:32:49.839Z,20.8
2018-06-10T03:34:50.250Z,20.8
2018-06-10T03:36:49.715Z,20.4
2018-06-10T03:38:49.921Z,19.6
2018-06-10T03:40:50.109Z,19.0
2018-06-10T03:42:50.272Z,19.3
2018-06-10T03:44:50.464Z,19.0
2018-06-10T03:46:49.730Z,19.0
2018-06-10T03:48:50.028Z,17.9
2018-06-10T03:50:50.150Z,18.4
2018-06-10T03:52:50.314Z,17.3
2018-06-10T03:54:50.494Z,17.3
2018-06-10T03:56:49.714Z,16.7
2018-06-10T03:58:49.867Z,16.2
2018-06-10T04:00:50.094Z,17.5
2018-06-10T04:02:50.263Z,18.5
2018-06-10T04:04:49.638Z,18.5
2018-06-10T04:06:49.922Z,19.7
2018-06-10T04:08:50.135Z,18.8
2018-06-10T04:10:50.387Z,18.6
2018-06-10T04:12:49.703Z,18.2
2018-06-10T04:14:49.848Z,18.2
2018-06-10T04:16:50.076Z,19.7
2018-06-10T04:18:50.227Z,18.5
2018-06-10T04:20:50.380Z,19.1
2018-06-10T04:22:49.606Z,19.1
2018-06-10T04:24:49.723Z,19.5
2018-06-10T04:26:49.539Z,19.4
2018-06-10T04:28:49.666Z,18.7
2018-06-10T04:30:49.759Z,20.1
2018-06-10T04:32:50.058Z,20.1
2018-06-10T04:34:50.368Z,19.5
2018-06-10T04:36:49.633Z,20.3
2018-06-10T04:38:49.829Z,19.3
2018-06-10T04:40:49.995Z,20.1
2018-06-10T04:42:50.188Z,20.1
2018-06-10T04:44:50.344Z,18.5
2018-06-10T04:46:49.803Z,19.3
2018-06-10T04:48:50.033Z,18.9
2018-06-10T04:50:50.199Z,18.9
2018-06-10T04:52:50.364Z,18.6
2018-06-10T04:54:49.558Z,19.7
2018-06-10T04:56:49.832Z,19.5
2018-06-10T04:58:49.991Z,19.9
2018-06-10T05:00:50.154Z,19.4
2018-06-10T05:02:50.261Z,19.4
2018-06-10T05:04:49.621Z,19.1
2018-06-10T05:06:49.960Z,18.8
2018-06-10T05:08:50.167Z,18.8
2018-06-10T05:10:50.308Z,18.8
2018-06-10T05:12:49.571Z,18.3
2018-06-10T05:14:49.780Z,19.0
2018-06-10T05:16:50.051Z,19.1
2018-06-10T05:18:50.222Z,18.3
2018-06-10T05:20:50.390Z,18.7
2018-06-10T05:22:49.551Z,18.7
2018-06-10T05:24:49.703Z,18.1
2018-06-10T05:26:49.984Z,18.1
2018-06-10T05:28:50.133Z,18.6
2018-06-10T05:30:50.306Z,18.9
2018-06-10T05:32:50.451Z,18.9
2018-06-10T05:34:49.961Z,18.2
2018-06-10T05:36:49.897Z,18.1
2018-06-10T05:38:50.091Z,18.1
2018-06-10T05:40:50.260Z,18.1
2018-06-10T05:42:50.452Z,18.1
2018-06-10T05:44:49.584Z,18.1
2018-06-10T05:46:49.911Z,16.6
2018-06-10T05:48:50.140Z,16.6
2018-06-10T05:50:50.261Z,16.9
2018-06-10T05:52:50.453Z,15.5
2018-06-10T05:54:49.613Z,16.1
2018-06-10T05:56:49.829Z,16.1
2018-06-10T05:58:50.019Z,15.5
2018-06-10T06:00:50.188Z,15.5
2018-06-10T06:02:50.430Z,15.4
2018-06-10T06:04:49.742Z,15.3
2018-06-10T06:06:50.093Z,15.3
2018-06-10T06:08:50.225Z,15.6
2018-06-10T06:10:50.426Z,15.6
2018-06-10T06:12:49.583Z,14.7
2018-06-10T06:14:49.732Z,15.3
2018-06-10T06:16:50.077Z,15.3
2018-06-10T06:18:50.302Z,15.3
2018-06-10T06:20:50.521Z,15.7
2018-06-10T06:22:49.630Z,15.4
2018-06-10T06:24:49.789Z,15.1
2018-06-10T06:26:50.053Z,15.1
2018-06-10T06:28:50.251Z,14.5
2018-06-10T06:30:50.394Z,15.1
2018-06-10T06:32:49.591Z,15.4
2018-06-10T06:34:50.240Z,13.8
2018-06-10T06:36:50.490Z,13.9
2018-06-10T06:38:49.675Z,13.9
2018-06-10T06:40:49.843Z,15.6
2018-06-10T06:42:50.063Z,14.3
2018-06-10T06:44:50.224Z,15.6
2018-06-10T06:46:50.477Z,15.6
2018-06-10T06:48:49.633Z,14.1
2018-06-10T06:50:49.868Z,13.6
2018-06-10T06:52:50.130Z,13.6
2018-06-10T06:54:50.304Z,13.6
2018-06-10T06:56:49.621Z,12.9
2018-06-10T06:58:49.769Z,12.7
2018-06-10T07:00:49.970Z,11.7
2018-06-10T07:02:50.165Z,12.6
2018-06-10T07:04:49.557Z,12.6
2018-06-10T07:06:49.822Z,12.3
2018-06-10T07:08:49.975Z,12.3
2018-06-10T07:10:50.134Z,12.5
2018-06-10T07:12:50.280Z,14.4
2018-06-10T07:14:50.430Z,14.4
2018-06-10T07:16:49.756Z,13.3
2018-06-10T07:18:49.975Z,13.3
2018-06-10T07:20:50.241Z,12.6
2018-06-10T07:22:50.459Z,12.6
2018-06-10T07:24:49.579Z,13.4
2018-06-10T07:26:49.816Z,13.8
2018-06-10T07:28:49.984Z,13.8
2018-06-10T07:30:50.207Z,12.6
2018-06-10T07:32:50.396Z,12.6
2018-06-10T07:34:49.832Z,12.6
2018-06-10T07:36:50.190Z,14.4
2018-06-10T07:38:50.368Z,14.4
2018-06-10T07:40:49.647Z,13.0
2018-06-10T07:42:49.867Z,12.5
2018-06-10T07:44:50.051Z,12.0
2018-06-10T07:46:50.370Z,12.0
2018-06-10T07:48:49.565Z,11.6
2018-06-10T07:50:49.768Z,11.1
2018-06-10T07:52:50.045Z,11.1
2018-06-10T07:54:50.227Z,10.7
2018-06-10T07:56:49.680Z,10.7
2018-06-10T07:58:49.811Z,10.0
2018-06-10T08:00:49.983Z,10.1
2018-06-10T08:02:50.160Z,10.1
2018-06-10T08:04:49.718Z,9.2
2018-06-10T08:06:50.050Z,7.7
2018-06-10T08:08:50.172Z,8.7
2018-06-10T08:10:50.324Z,8.7
2018-06-10T08:12:50.495Z,11.1
2018-06-10T08:14:49.667Z,11.1
2018-06-10T08:16:50.085Z,8.8
2018-06-10T08:18:50.265Z,7.3
2018-06-10T08:20:50.447Z,7.8
2018-06-10T08:22:49.657Z,7.8
2018-06-10T08:24:49.788Z,8.7
2018-06-10T08:26:50.231Z,8.0
2018-06-10T08:28:50.385Z,8.2
2018-06-10T08:30:49.597Z,8.2
2018-06-10T08:32:49.759Z,7.5
2018-06-10T08:34:50.060Z,7.5
2018-06-10T08:36:50.339Z,7.5
2018-06-10T08:38:49.584Z,8.5
2018-06-10T08:40:49.787Z,9.3
2018-06-10T08:42:50.054Z,9.3
2018-06-10T08:44:50.203Z,8.9
2018-06-10T08:46:50.445Z,8.0
2018-06-10T08:48:49.592Z,7.9
2018-06-10T08:50:49.803Z,10.2
2018-06-10T08:52:49.982Z,10.2
2018-06-10T08:54:50.135Z,7.8
2018-06-10T08:56:50.570Z,7.9
2018-06-10T08:58:49.886Z,7.7
2018-06-10T09:00:50.115Z,7.9
2018-06-10T09:02:50.383Z,7.9
2018-06-10T09:04:49.991Z,8.6
2018-06-10T09:06:50.186Z,7.6
2018-06-10T09:08:50.434Z,7.6
2018-06-10T09:10:50.099Z,7.6
2018-06-10T09:12:50.286Z,7.1
2018-06-10T09:14:50.560Z,7.1
2018-06-10T09:16:50.310Z,7.2
2018-06-10T09:18:50.500Z,6.5
2018-06-10T09:20:49.641Z,6.5
2018-06-10T09:22:49.819Z,6.9
2018-06-10T09:24:50.024Z,6.9
2018-06-10T09:26:49.538Z,6.8
2018-06-10T09:28:49.732Z,6.8
2018-06-10T09:30:50.304Z,6.6
2018-06-10T09:32:50.453Z,6.6
2018-06-10T09:34:49.742Z,6.3
2018-06-10T09:36:50.084Z,6.0
2018-06-10T09:38:50.270Z,6.0
2018-06-10T09:40:50.446Z,6.1
2018-06-10T09:42:49.718Z,6.1
2018-06-10T09:44:49.846Z,5.2
2018-06-10T09:46:50.148Z,5.2
2018-06-10T09:48:50.323Z,4.9
2018-06-10T09:50:50.495Z,4.8
2018-06-10T09:52:49.620Z,4.8
2018-06-10T09:54:49.775Z,5.0
2018-06-10T09:56:50.042Z,4.9
2018-06-10T09:58:50.168Z,4.9
2018-06-10T10:00:50.382Z,4.9
2018-06-10T10:02:49.785Z,4.8
2018-06-10T10:04:50.499Z,5.4
2018-06-10T10:06:49.854Z,5.2
2018-06-10T10:08:50.162Z,5.1
2018-06-10T10:10:49.763Z,5.1
2018-06-10T10:12:49.963Z,5.1
2018-06-10T10:14:50.208Z,4.8
2018-06-10T10:16:49.595Z,4.8
2018-06-10T10:18:49.753Z,5.0
2018-06-10T10:20:49.912Z,4.8
2018-06-10T10:22:50.137Z,4.9
2018-06-10T10:24:50.061Z,4.6
2018-06-10T10:26:50.160Z,4.4
2018-06-10T10:28:50.301Z,4.4
2018-06-10T10:30:50.414Z,4.8
2018-06-10T10:32:49.588Z,4.9
2018-06-10T10:34:49.868Z,4.8
2018-06-10T10:36:50.142Z,5.1
2018-06-10T10:38:50.311Z,5.1
2018-06-10T10:40:50.535Z,5.0
2018-06-10T10:42:49.761Z,6.7
2018-06-10T10:44:50.022Z,5.0
2018-06-10T10:46:50.322Z,4.5
2018-06-10T10:48:50.526Z,4.5
2018-06-10T10:50:50.087Z,4.6
2018-06-10T10:52:50.204Z,4.7
2018-06-10T10:54:50.343Z,4.1
2018-06-10T10:56:49.597Z,4.1
2018-06-10T10:58:49.739Z,4.3
2018-06-10T11:00:49.855Z,4.8
2018-06-10T11:02:50.021Z,4.3
2018-06-10T11:04:50.355Z,4.3
2018-06-10T11:06:49.590Z,4.0
2018-06-10T11:08:49.732Z,3.8
2018-06-10T11:10:49.944Z,3.8
2018-06-10T11:12:50.191Z,4.0
2018-06-10T11:14:50.501Z,4.0
2018-06-10T11:16:49.916Z,3.9
2018-06-10T11:18:50.129Z,3.7
2018-06-10T11:20:50.294Z,3.7
2018-06-10T11:22:50.429Z,4.1
2018-06-10T11:24:49.560Z,4.1
2018-06-10T11:26:49.806Z,3.8
2018-06-10T11:28:49.907Z,3.8
2018-06-10T11:30:50.086Z,3.8
2018-06-10T11:32:50.239Z,3.9
2018-06-10T11:34:49.686Z,3.9
2018-06-10T11:36:49.889Z,4.8
2018-06-10T11:38:49.994Z,4.8
2018-06-10T11:40:50.091Z,4.8
2018-06-10T11:42:50.230Z,4.5
2018-06-10T11:44:50.383Z,4.7
2018-06-10T11:46:49.726Z,4.7
2018-06-10T11:48:49.857Z,4.5
2018-06-10T11:50:49.989Z,4.9
2018-06-10T11:52:50.202Z,5.0
2018-06-10T11:54:50.389Z,5.0
2018-06-10T11:56:49.679Z,5.2
2018-06-10T11:58:49.969Z,5.3
2018-06-10T12:00:50.125Z,5.3
2018-06-10T12:02:50.210Z,5.4
2018-06-10T12:04:49.550Z,5.4
2018-06-10T12:06:49.791Z,5.7
2018-06-10T12:08:49.916Z,5.5
2018-06-10T12:10:50.167Z,5.6
2018-06-10T12:12:49.738Z,5.6
2018-06-10T12:14:49.896Z,5.5
2018-06-10T12:16:50.181Z,5.3
2018-06-10T12:18:50.378Z,5.8
2018-06-10T12:20:49.562Z,6.0
2018-06-10T12:22:49.914Z,6.0
2018-06-10T12:24:50.041Z,6.0
2018-06-10T12:26:50.332Z,6.0
2018-06-10T12:28:50.504Z,6.3
2018-06-10T12:30:49.721Z,6.4
2018-06-10T12:32:49.897Z,6.4
2018-06-10T12:34:50.191Z,6.4
2018-06-10T12:36:49.552Z,6.2
2018-06-10T12:38:49.680Z,6.1
2018-06-10T12:40:49.812Z,6.4
2018-06-10T12:42:49.989Z,6.4
2018-06-10T12:44:50.192Z,6.2
2018-06-10T12:46:50.521Z,6.3
2018-06-10T12:48:49.735Z,6.2
2018-06-10T12:50:49.974Z,6.0
2018-06-10T12:52:50.186Z,6.0
2018-06-10T12:54:50.282Z,6.1
2018-06-10T12:56:50.548Z,6.0
2018-06-10T12:58:50.102Z,6.1
2018-06-10T13:00:50.298Z,6.1
2018-06-10T13:02:50.448Z,6.4
2018-06-10T13:04:49.985Z,5.8
2018-06-10T13:06:50.296Z,5.7
2018-06-10T13:08:50.444Z,5.7
2018-06-10T13:10:49.668Z,5.7
2018-06-10T13:12:49.857Z,5.6
2018-06-10T13:14:50.027Z,5.6
2018-06-10T13:16:50.340Z,5.4
2018-06-10T13:18:49.546Z,5.4
2018-06-10T13:20:49.693Z,5.6
2018-06-10T13:22:49.835Z,5.5
2018-06-10T13:24:50.167Z,5.3
2018-06-10T13:26:50.450Z,5.2
2018-06-10T13:28:49.562Z,5.2
2018-06-10T13:30:49.690Z,5.1
2018-06-10T13:32:49.844Z,5.7
2018-06-10T13:34:50.211Z,5.4
2018-06-10T13:36:49.590Z,5.9
2018-06-10T13:38:49.807Z,5.9
2018-06-10T13:40:49.920Z,5.2
2018-06-10T13:42:50.079Z,5.1
2018-06-10T13:44:50.247Z,5.4
2018-06-10T13:46:49.603Z,5.3
2018-06-10T13:48:49.733Z,5.3
2018-06-10T13:50:49.930Z,5.4
2018-06-10T13:52:50.134Z,5.8
2018-06-10T13:54:50.350Z,5.7
2018-06-10T13:56:49.623Z,5.4
2018-06-10T13:58:49.752Z,5.9
2018-06-10T14:00:49.987Z,5.9
2018-06-10T14:02:50.169Z,5.8
2018-06-10T14:04:49.551Z,5.4
2018-06-10T14:06:50.171Z,5.7
2018-06-10T14:08:50.009Z,5.6
2018-06-10T14:10:50.230Z,5.6
2018-06-10T14:12:49.581Z,5.9
2018-06-10T14:14:49.792Z,6.6
2018-06-10T14:16:50.221Z,6.9
2018-06-10T14:18:50.428Z,6.9
2018-06-10T14:20:49.596Z,7.3
2018-06-10T14:22:49.765Z,7.0
2018-06-10T14:24:49.928Z,7.0
2018-06-10T14:26:50.210Z,7.0
2018-06-10T14:28:50.329Z,6.8
2018-06-10T14:30:49.537Z,6.4
2018-06-10T14:32:49.700Z,6.2
2018-06-10T14:34:50.147Z,6.0
2018-06-10T14:36:50.516Z,6.0
2018-06-10T14:38:49.647Z,6.1
2018-06-10T14:40:49.756Z,6.1
2018-06-10T14:42:49.988Z,6.0
2018-06-10T14:44:50.191Z,6.1
2018-06-10T14:46:50.502Z,6.1
2018-06-10T14:48:49.683Z,5.3
2018-06-10T14:50:49.907Z,4.4
2018-06-10T14:52:50.057Z,3.9
2018-06-10T14:54:50.242Z,3.8
2018-06-10T14:56:49.525Z,3.8
2018-06-10T14:58:49.652Z,3.8
2018-06-10T15:00:49.775Z,3.9
2018-06-10T15:02:49.986Z,4.3
2018-06-10T15:04:50.373Z,4.1
2018-06-10T15:06:49.719Z,4.1
2018-06-10T15:08:49.911Z,4.0
2018-06-10T15:10:50.075Z,3.9
2018-06-10T15:12:50.278Z,4.0
2018-06-10T15:14:50.415Z,4.0
2018-06-10T15:16:49.698Z,4.4
2018-06-10T15:18:49.812Z,4.4
2018-06-10T15:20:50.187Z,4.8
2018-06-10T15:22:49.888Z,4.4
2018-06-10T15:24:50.021Z,4.4
2018-06-10T15:26:50.284Z,5.3
2018-06-10T15:28:50.425Z,5.8
2018-06-10T15:30:49.630Z,5.8
2018-06-10T15:32:49.874Z,5.7
2018-06-10T15:34:50.248Z,5.8
2018-06-10T15:36:49.592Z,5.8
2018-06-10T15:38:49.779Z,5.8
2018-06-10T15:40:49.912Z,5.5
2018-06-10T15:42:49.990Z,5.1
2018-06-10T15:44:50.195Z,5.1
2018-06-10T15:46:50.554Z,5.5
2018-06-10T15:48:49.657Z,5.3
2018-06-10T15:50:49.800Z,5.3
2018-06-10T15:52:49.903Z,5.0
2018-06-10T15:54:50.042Z,4.6
2018-06-10T15:56:50.375Z,4.6
2018-06-10T15:58:49.549Z,5.0
2018-06-10T16:00:49.841Z,4.7
2018-06-10T16:02:50.032Z,4.7
2018-06-10T16:04:50.394Z,4.7
2018-06-10T16:06:49.729Z,5.0
2018-06-10T16:08:49.878Z,4.7
2018-06-10T16:10:50.120Z,4.7
2018-06-10T16:12:50.258Z,4.9
2018-06-10T16:14:50.379Z,4.9
2018-06-10T16:16:49.823Z,4.8
2018-06-10T16:18:49.605Z,4.7
2018-06-10T16:20:49.703Z,4.5
2018-06-10T16:22:49.844Z,4.5
2018-06-10T16:24:50.034Z,4.7
2018-06-10T16:26:50.283Z,4.7
2018-06-10T16:28:50.428Z,4.4
2018-06-10T16:30:49.579Z,4.5
2018-06-10T16:32:49.718Z,4.5
2018-06-10T16:34:50.083Z,4.5
2018-06-10T16:36:50.311Z,4.9
2018-06-10T16:38:50.454Z,4.9
2018-06-10T16:40:49.645Z,4.9
2018-06-10T16:42:49.859Z,4.9
2018-06-10T16:44:50.016Z,5.1
2018-06-10T16:46:50.386Z,5.0
2018-06-10T16:48:50.555Z,5.1
2018-06-10T16:50:49.771Z,5.0
2018-06-10T16:52:49.935Z,5.0
2018-06-10T16:54:50.051Z,5.2
2018-06-10T16:56:50.294Z,5.5
2018-06-10T16:58:50.454Z,5.5
2018-06-10T17:00:49.588Z,5.4
2018-06-10T17:02:49.822Z,5.4
2018-06-10T17:04:50.247Z,5.4
2018-06-10T17:06:50.536Z,5.4
2018-06-10T17:08:49.747Z,5.2
2018-06-10T17:10:49.964Z,5.2
2018-06-10T17:12:50.076Z,5.5
2018-06-10T17:14:50.187Z,5.5
2018-06-10T17:16:49.560Z,5.9
2018-06-10T17:18:49.654Z,6.4
2018-06-10T17:20:49.815Z,6.4
2018-06-10T17:22:50.028Z,5.9
2018-06-10T17:24:50.153Z,6.8
2018-06-10T17:26:50.501Z,6.8
2018-06-10T17:28:49.604Z,6.2
2018-06-10T17:30:49.768Z,7.0
2018-06-10T17:32:49.959Z,6.6
2018-06-10T17:34:50.271Z,6.5
2018-06-10T17:36:49.678Z,6.3
2018-06-10T17:38:49.809Z,6.3
2018-06-10T17:40:49.969Z,6.3
2018-06-10T17:42:50.127Z,6.7
2018-06-10T17:44:50.393Z,6.7
2018-06-10T17:46:49.845Z,6.5
2018-06-10T17:48:49.997Z,6.5
2018-06-10T17:50:50.143Z,6.7
2018-06-10T17:52:50.367Z,6.7
2018-06-10T17:54:49.631Z,6.7
2018-06-10T17:56:49.909Z,6.6
2018-06-10T17:58:50.025Z,6.6
2018-06-10T18:00:50.148Z,10.9
2018-06-10T18:02:50.379Z,10.9
2018-06-10T18:04:49.637Z,8.9
2018-06-10T18:06:50.160Z,6.7
2018-06-10T18:08:49.836Z,6.7
2018-06-10T18:10:49.959Z,8.3
2018-06-10T18:12:50.147Z,8.8
2018-06-10T18:14:50.279Z,7.1
2018-06-10T18:16:49.606Z,7.1
2018-06-10T18:18:49.743Z,7.1
2018-06-10T18:20:49.897Z,7.7
2018-06-10T18:22:50.215Z,6.4
2018-06-10T18:24:50.337Z,6.8
2018-06-10T18:26:49.592Z,6.9
2018-06-10T18:28:49.717Z,6.9
2018-06-10T18:30:49.828Z,6.5
2018-06-10T18:32:49.943Z,6.4
2018-06-10T18:34:50.411Z,6.4
2018-06-10T18:36:49.658Z,7.2
2018-06-10T18:38:49.847Z,7.2
2018-06-10T18:40:49.963Z,6.9
2018-06-10T18:42:50.338Z,7.4
2018-06-10T18:44:49.667Z,7.1
2018-06-10T18:46:49.981Z,7.1
2018-06-10T18:48:50.190Z,7.7
2018-06-10T18:50:50.373Z,7.0
2018-06-10T18:52:50.514Z,7.6
2018-06-10T18:54:49.682Z,7.5
2018-06-10T18:56:49.980Z,7.6
2018-06-10T18:58:50.177Z,7.6
2018-06-10T19:00:50.336Z,7.7
2018-06-10T19:02:50.452Z,7.9
2018-06-10T19:04:49.950Z,7.5
2018-06-10T19:06:50.254Z,7.5
2018-06-10T19:08:50.420Z,7.4
2018-06-10T19:10:49.648Z,7.7
2018-06-10T19:12:49.921Z,7.9
2018-06-10T19:14:50.123Z,7.9
2018-06-10T19:16:50.359Z,7.9
2018-06-10T19:18:49.534Z,8.1
2018-06-10T19:20:49.668Z,8.5
2018-06-10T19:22:49.853Z,8.8
2018-06-10T19:24:50.020Z,8.8
2018-06-10T19:26:50.406Z,8.5
2018-06-10T19:28:49.590Z,8.5
2018-06-10T19:30:49.713Z,8.4
2018-06-10T19:32:50.005Z,8.1
2018-06-10T19:34:49.935Z,8.1
2018-06-10T19:36:50.241Z,8.7
2018-06-10T19:38:50.409Z,8.7
2018-06-10T19:40:49.742Z,10.0
2018-06-10T19:42:49.945Z,9.1
2018-06-10T19:44:50.024Z,9.1
2018-06-10T19:46:50.322Z,9.4
2018-06-10T19:48:50.496Z,8.6
2018-06-10T19:50:49.649Z,9.1
2018-06-10T19:52:49.768Z,9.1
2018-06-10T19:54:49.947Z,9.1
2018-06-10T19:56:50.208Z,9.0
2018-06-10T19:58:50.352Z,9.5
2018-06-10T20:00:50.516Z,9.3
2018-06-10T20:02:49.746Z,9.6
2018-06-10T20:04:50.271Z,9.6
2018-06-10T20:06:49.546Z,10.0
2018-06-10T20:08:49.704Z,10.0
2018-06-10T20:10:49.843Z,9.7
2018-06-10T20:12:50.102Z,10.3
2018-06-10T20:14:49.539Z,10.5
2018-06-10T20:16:49.840Z,10.5
2018-06-10T20:18:49.973Z,10.7
2018-06-10T20:20:50.119Z,11.2
2018-06-10T20:22:50.290Z,11.2
2018-06-10T20:24:50.452Z,10.4
2018-06-10T20:26:49.802Z,10.4
2018-06-10T20:28:50.006Z,10.4
2018-06-10T20:30:50.154Z,10.8
2018-06-10T20:32:50.331Z,11.2
2018-06-10T20:34:49.693Z,11.2
2018-06-10T20:36:50.083Z,10.9
2018-06-10T20:38:50.010Z,10.9
2018-06-10T20:40:50.024Z,11.4
2018-06-10T20:42:50.022Z,11.4
2018-06-10T20:44:49.994Z,11.6
2018-06-10T20:46:50.150Z,11.5
2018-06-10T20:48:50.167Z,11.7
2018-06-10T20:50:50.311Z,11.7
2018-06-10T20:52:50.425Z,11.7
2018-06-10T20:54:49.550Z,11.9
2018-06-10T20:56:49.759Z,11.6
2018-06-10T20:58:49.932Z,12.3
2018-06-10T21:00:50.084Z,12.2
2018-06-10T21:02:50.281Z,12.2
2018-06-10T21:04:49.651Z,11.5
2018-06-10T21:06:49.944Z,12.2
2018-06-10T21:08:50.082Z,12.2
2018-06-10T21:10:50.238Z,12.1
2018-06-10T21:12:50.336Z,12.1
2018-06-10T21:14:49.548Z,12.5
2018-06-10T21:16:49.796Z,12.3
2018-06-10T21:18:49.943Z,12.3
2018-06-10T21:20:50.130Z,12.3
2018-06-10T21:22:50.259Z,11.9
2018-06-10T21:24:50.410Z,11.7
2018-06-10T21:26:49.679Z,11.2
2018-06-10T21:28:49.823Z,11.2
2018-06-10T21:30:49.989Z,12.2
2018-06-10T21:32:50.192Z,12.4
2018-06-10T21:34:50.498Z,12.4
2018-06-10T21:36:49.770Z,11.6
2018-06-10T21:38:49.923Z,12.6
2018-06-10T21:40:50.059Z,12.6
2018-06-10T21:42:50.201Z,12.4
2018-06-10T21:44:50.416Z,12.0
2018-06-10T21:46:49.709Z,12.0
2018-06-10T21:48:49.826Z,12.3
2018-06-10T21:50:50.032Z,12.3
2018-06-10T21:52:50.199Z,12.3
2018-06-10T21:54:50.351Z,12.4
2018-06-10T21:56:49.624Z,12.6
2018-06-10T21:58:49.802Z,13.0
2018-06-10T22:00:50.051Z,13.0
2018-06-10T22:02:50.177Z,12.7
2018-06-10T22:04:50.480Z,13.0
2018-06-10T22:06:49.936Z,12.6
2018-06-10T22:08:50.119Z,12.6
2018-06-10T22:10:50.236Z,12.8
2018-06-10T22:12:50.402Z,13.8
2018-06-10T22:14:49.545Z,13.8
2018-06-10T22:16:49.917Z,13.3
2018-06-10T22:18:50.051Z,13.3
2018-06-10T22:20:50.223Z,13.2
2018-06-10T22:22:50.375Z,13.5
2018-06-10T22:24:49.720Z,13.9
2018-06-10T22:26:50.230Z,14.4
2018-06-10T22:28:50.377Z,14.4
2018-06-10T22:30:49.559Z,14.3
2018-06-10T22:32:49.757Z,14.4
2018-06-10T22:34:50.125Z,14.1
2018-06-10T22:36:49.640Z,14.1
2018-06-10T22:38:50.155Z,14.1
2018-06-10T22:40:50.379Z,14.1
2018-06-10T22:42:49.575Z,13.7
2018-06-10T22:44:49.731Z,13.7
2018-06-10T22:46:50.052Z,13.9
2018-06-10T22:48:50.259Z,14.7
2018-06-10T22:50:50.416Z,14.5
2018-06-10T22:52:49.565Z,14.5
2018-06-10T22:54:49.739Z,15.1
2018-06-10T22:56:50.091Z,15.1
2018-06-10T22:58:50.275Z,15.6
2018-06-10T23:00:50.466Z,15.6
2018-06-10T23:02:49.615Z,15.8
2018-06-10T23:04:49.982Z,16.4
2018-06-10T23:06:50.301Z,16.4
2018-06-10T23:08:50.483Z,15.3
2018-06-10T23:10:49.619Z,15.8
2018-06-10T23:12:49.854Z,15.5
2018-06-10T23:14:50.065Z,16.3
2018-06-10T23:16:50.305Z,15.2
2018-06-10T23:18:50.473Z,15.2
2018-06-10T23:20:49.770Z,15.7
2018-06-10T23:22:49.957Z,14.9
2018-06-10T23:24:50.112Z,15.8
2018-06-10T23:26:50.388Z,15.8
2018-06-10T23:28:49.552Z,16.2
2018-06-10T23:30:49.731Z,16.2
2018-06-10T23:32:49.943Z,16.6
2018-06-10T23:34:50.400Z,16.9
2018-06-10T23:36:49.670Z,17.0
2018-06-10T23:38:49.848Z,17.0
2018-06-10T23:40:49.981Z,16.7
2018-06-10T23:42:50.162Z,17.0
2018-06-10T23:44:50.320Z,17.0
2018-06-10T23:46:49.577Z,16.8
2018-06-10T23:48:49.738Z,17.0
2018-06-10T23:50:49.888Z,16.0
2018-06-10T23:52:50.052Z,16.9
2018-06-10T23:54:50.232Z,16.9
2018-06-10T23:56:50.516Z,17.1
2018-06-10T23:58:49.654Z,17.0
